Dexter Municipal Airport


Codes: KDXE/
Name: Dexter Municipal Airport
City: Dexter
Country: United States
Elevation: 304 ft.

Photos at Dexter Municipal Airport


   Photos courtesy of SpottingLog. You can add your own sightings and photos by signing up for a free trial today.



No photos found.

Weather at Dexter Municipal Airport


Time (UTC)DescriptionTempratureWindCloud coverageVisibilityPressureHumidity
16-Jun-2024 09:00Clear Sky25°C4 mph, S0%10000m1013hPa86%
16-Jun-2024 12:00Clear Sky25°C2 mph, S0%10000m1014hPa86%
16-Jun-2024 15:00Clear Sky28°C9 mph, S0%10000m1014hPa68%
16-Jun-2024 18:00Clear Sky33°C11 mph, SW0%10000m1014hPa50%
16-Jun-2024 21:00Few Clouds34°C9 mph, SW11%10000m1013hPa44%
17-Jun-2024 00:00Few Clouds32°C2 mph, W16%10000m1012hPa60%
17-Jun-2024 03:00Clear Sky25°C9 mph, SE4%10000m1014hPa77%
17-Jun-2024 06:00Clear Sky24°C9 mph, SE1%10000m1014hPa82%
17-Jun-2024 09:00Light Rain23°C7 mph, SE39%10000m1014hPa80%
17-Jun-2024 12:00Broken Clouds24°C4 mph, S69%10000m1015hPa83%
17-Jun-2024 15:00Light Rain29°C11 mph, S100%10000m1016hPa68%
17-Jun-2024 18:00Light Rain30°C16 mph, S88%10000m1016hPa63%
17-Jun-2024 21:00Light Rain24°C7 mph, SE100%10000m1015hPa89%
18-Jun-2024 00:00Overcast Clouds26°C7 mph, SE99%10000m1014hPa80%
18-Jun-2024 03:00Light Rain24°C9 mph, SE100%8456m1016hPa90%
18-Jun-2024 06:00Light Rain23°C9 mph, S100%10000m1016hPa88%
18-Jun-2024 09:00Light Rain22°C7 mph, SE100%10000m1016hPa90%
18-Jun-2024 12:00Light Rain22°C7 mph, SE100%10000m1017hPa91%
18-Jun-2024 15:00Overcast Clouds27°C11 mph, SE100%10000m1017hPa70%
18-Jun-2024 18:00Light Rain30°C16 mph, S97%10000m1017hPa60%
18-Jun-2024 21:00Light Rain26°C9 mph, S100%10000m1017hPa77%
19-Jun-2024 00:00Light Rain23°C7 mph, SE100%10000m1018hPa84%
19-Jun-2024 03:00Overcast Clouds23°C7 mph, SE100%10000m1018hPa85%
19-Jun-2024 06:00Overcast Clouds22°C7 mph, SE100%10000m1018hPa85%
19-Jun-2024 09:00Overcast Clouds22°C4 mph, NE100%10000m1019hPa79%
19-Jun-2024 12:00Overcast Clouds22°C4 mph, E100%10000m1021hPa80%
19-Jun-2024 15:00Overcast Clouds24°C2 mph, S100%10000m1022hPa79%
19-Jun-2024 18:00Overcast Clouds24°C2 mph, N100%10000m1022hPa79%
19-Jun-2024 21:00Overcast Clouds26°C4 mph, N100%10000m1021hPa72%
20-Jun-2024 00:00Overcast Clouds25°C4 mph, N100%10000m1021hPa81%
20-Jun-2024 03:00Overcast Clouds24°C4 mph, E98%10000m1022hPa84%
20-Jun-2024 06:00Overcast Clouds22°C4 mph, NE99%10000m1022hPa87%
20-Jun-2024 09:00Overcast Clouds22°C7 mph, NE100%10000m1022hPa84%
20-Jun-2024 12:00Overcast Clouds22°C7 mph, NE96%10000m1024hPa84%
20-Jun-2024 15:00Overcast Clouds28°C7 mph, E100%10000m1024hPa67%
20-Jun-2024 18:00Light Rain31°C7 mph, E80%10000m1023hPa52%
20-Jun-2024 21:00Broken Clouds32°C9 mph, NE65%10000m1021hPa48%
21-Jun-2024 00:00Broken Clouds29°C7 mph, E82%10000m1021hPa67%
21-Jun-2024 03:00Broken Clouds25°C4 mph, E63%10000m1021hPa75%
21-Jun-2024 06:00Broken Clouds24°C4 mph, NE74%10000m1021hPa83%